sensor_id;sensor_type;location;lat;lon;timestamp;P1;durP1;ratioP1;P2;durP2;ratioP2
14584;SDS011;7379;51.506;11.876;2022-09-02T00:01:21;2.15;;;1.92;;
14584;SDS011;7379;51.506;11.876;2022-09-02T00:03:53;2.55;;;2.00;;
14584;SDS011;7379;51.506;11.876;2022-09-02T00:06:22;2.58;;;2.22;;
14584;SDS011;7379;51.506;11.876;2022-09-02T00:08:51;4.22;;;1.92;;
14584;SDS011;7379;51.506;11.876;2022-09-02T00:11:19;2.75;;;2.00;;
14584;SDS011;7379;51.506;11.876;2022-09-02T00:13:48;2.50;;;1.90;;
14584;SDS011;7379;51.506;11.876;2022-09-02T00:16:16;2.58;;;1.90;;
14584;SDS011;7379;51.506;11.876;2022-09-02T00:18:43;2.28;;;1.98;;
14584;SDS011;7379;51.506;11.876;2022-09-02T00:21:12;2.60;;;1.90;;
14584;SDS011;7379;51.506;11.876;2022-09-02T00:23:40;2.15;;;1.73;;
14584;SDS011;7379;51.506;11.876;2022-09-02T00:26:11;2.00;;;1.80;;
14584;SDS011;7379;51.506;11.876;2022-09-02T00:28:39;2.10;;;1.80;;
14584;SDS011;7379;51.506;11.876;2022-09-02T00:31:06;2.33;;;2.03;;
14584;SDS011;7379;51.506;11.876;2022-09-02T00:33:33;3.20;;;2.10;;
14584;SDS011;7379;51.506;11.876;2022-09-02T00:36:00;4.15;;;1.88;;
14584;SDS011;7379;51.506;11.876;2022-09-02T00:38:28;2.30;;;1.90;;
14584;SDS011;7379;51.506;11.876;2022-09-02T00:40:56;2.75;;;1.80;;
14584;SDS011;7379;51.506;11.876;2022-09-02T00:43:25;2.58;;;1.90;;
14584;SDS011;7379;51.506;11.876;2022-09-02T00:46:03;1.90;;;1.70;;
14584;SDS011;7379;51.506;11.876;2022-09-02T00:48:30;2.55;;;1.85;;
14584;SDS011;7379;51.506;11.876;2022-09-02T00:50:57;2.30;;;1.98;;
14584;SDS011;7379;51.506;11.876;2022-09-02T00:53:24;1.92;;;1.73;;
14584;SDS011;7379;51.506;11.876;2022-09-02T00:55:51;2.58;;;1.98;;
14584;SDS011;7379;51.506;11.876;2022-09-02T00:58:18;2.22;;;2.00;;
14584;SDS011;7379;51.506;11.876;2022-09-02T01:00:50;2.17;;;1.85;;
14584;SDS011;7379;51.506;11.876;2022-09-02T01:03:22;2.58;;;2.00;;
14584;SDS011;7379;51.506;11.876;2022-09-02T01:05:52;2.63;;;1.80;;
14584;SDS011;7379;51.506;11.876;2022-09-02T01:08:21;3.00;;;1.80;;
14584;SDS011;7379;51.506;11.876;2022-09-02T01:10:54;2.35;;;1.83;;
14584;SDS011;7379;51.506;11.876;2022-09-02T01:13:23;2.50;;;1.65;;
14584;SDS011;7379;51.506;11.876;2022-09-02T01:15:53;2.35;;;1.90;;
14584;SDS011;7379;51.506;11.876;2022-09-02T01:18:23;1.73;;;1.63;;
14584;SDS011;7379;51.506;11.876;2022-09-02T01:20:53;1.85;;;1.73;;
14584;SDS011;7379;51.506;11.876;2022-09-02T01:23:22;2.10;;;1.60;;
14584;SDS011;7379;51.506;11.876;2022-09-02T01:25:49;2.03;;;1.70;;
14584;SDS011;7379;51.506;11.876;2022-09-02T01:28:16;2.00;;;1.80;;
14584;SDS011;7379;51.506;11.876;2022-09-02T01:30:46;1.90;;;1.75;;
14584;SDS011;7379;51.506;11.876;2022-09-02T01:33:14;2.72;;;1.92;;
14584;SDS011;7379;51.506;11.876;2022-09-02T01:35:41;2.72;;;2.10;;
14584;SDS011;7379;51.506;11.876;2022-09-02T01:38:09;2.08;;;1.80;;
14584;SDS011;7379;51.506;11.876;2022-09-02T01:40:37;2.78;;;1.98;;
14584;SDS011;7379;51.506;11.876;2022-09-02T01:43:06;1.90;;;1.80;;
14584;SDS011;7379;51.506;11.876;2022-09-02T01:45:35;2.70;;;1.90;;
14584;SDS011;7379;51.506;11.876;2022-09-02T01:48:05;2.10;;;1.90;;
14584;SDS011;7379;51.506;11.876;2022-09-02T01:50:34;2.03;;;1.70;;
14584;SDS011;7379;51.506;11.876;2022-09-02T01:53:02;2.85;;;1.95;;
14584;SDS011;7379;51.506;11.876;2022-09-02T01:55:29;2.20;;;1.73;;
14584;SDS011;7379;51.506;11.876;2022-09-02T01:57:58;2.30;;;1.90;;
14584;SDS011;7379;51.506;11.876;2022-09-02T02:00:25;4.53;;;1.95;;
14584;SDS011;7379;51.506;11.876;2022-09-02T02:02:52;1.80;;;1.63;;
14584;SDS011;7379;51.506;11.876;2022-09-02T02:05:19;2.78;;;1.98;;
14584;SDS011;7379;51.506;11.876;2022-09-02T02:07:46;1.92;;;1.73;;
14584;SDS011;7379;51.506;11.876;2022-09-02T02:10:14;2.50;;;1.77;;
14584;SDS011;7379;51.506;11.876;2022-09-02T02:12:44;2.10;;;1.90;;
14584;SDS011;7379;51.506;11.876;2022-09-02T02:15:14;2.70;;;2.05;;
14584;SDS011;7379;51.506;11.876;2022-09-02T02:17:42;2.28;;;1.90;;
14584;SDS011;7379;51.506;11.876;2022-09-02T02:20:09;2.17;;;1.80;;
14584;SDS011;7379;51.506;11.876;2022-09-02T02:22:39;2.75;;;1.90;;
14584;SDS011;7379;51.506;11.876;2022-09-02T02:25:07;2.67;;;2.05;;
14584;SDS011;7379;51.506;11.876;2022-09-02T02:27:34;1.67;;;1.58;;
14584;SDS011;7379;51.506;11.876;2022-09-02T02:30:01;2.97;;;2.00;;
14584;SDS011;7379;51.506;11.876;2022-09-02T02:32:30;3.53;;;1.90;;
14584;SDS011;7379;51.506;11.876;2022-09-02T02:34:57;2.17;;;1.80;;
14584;SDS011;7379;51.506;11.876;2022-09-02T02:37:24;2.72;;;1.75;;
14584;SDS011;7379;51.506;11.876;2022-09-02T02:39:51;2.33;;;1.80;;
14584;SDS011;7379;51.506;11.876;2022-09-02T02:42:18;1.95;;;1.70;;
14584;SDS011;7379;51.506;11.876;2022-09-02T02:44:45;1.60;;;1.50;;
14584;SDS011;7379;51.506;11.876;2022-09-02T02:47:12;3.58;;;1.90;;
14584;SDS011;7379;51.506;11.876;2022-09-02T02:49:42;1.88;;;1.77;;
14584;SDS011;7379;51.506;11.876;2022-09-02T02:52:09;2.00;;;1.70;;
14584;SDS011;7379;51.506;11.876;2022-09-02T02:54:37;3.30;;;1.80;;
14584;SDS011;7379;51.506;11.876;2022-09-02T02:57:05;2.00;;;1.80;;
14584;SDS011;7379;51.506;11.876;2022-09-02T02:59:34;2.10;;;1.55;;
14584;SDS011;7379;51.506;11.876;2022-09-02T03:02:01;2.15;;;1.80;;
14584;SDS011;7379;51.506;11.876;2022-09-02T03:04:29;2.00;;;1.80;;
14584;SDS011;7379;51.506;11.876;2022-09-02T03:06:57;1.95;;;1.75;;
14584;SDS011;7379;51.506;11.876;2022-09-02T03:09:24;1.90;;;1.70;;
14584;SDS011;7379;51.506;11.876;2022-09-02T03:11:51;2.20;;;1.80;;
14584;SDS011;7379;51.506;11.876;2022-09-02T03:14:18;2.00;;;1.80;;
14584;SDS011;7379;51.506;11.876;2022-09-02T03:16:44;1.67;;;1.58;;
14584;SDS011;7379;51.506;11.876;2022-09-02T03:19:11;2.65;;;1.85;;
14584;SDS011;7379;51.506;11.876;2022-09-02T03:21:39;2.55;;;1.80;;
14584;SDS011;7379;51.506;11.876;2022-09-02T03:24:08;1.88;;;1.70;;
14584;SDS011;7379;51.506;11.876;2022-09-02T03:26:36;2.10;;;1.90;;
14584;SDS011;7379;51.506;11.876;2022-09-02T03:29:03;2.20;;;1.95;;
14584;SDS011;7379;51.506;11.876;2022-09-02T03:31:30;2.10;;;1.90;;
14584;SDS011;7379;51.506;11.876;2022-09-02T03:33:57;2.22;;;1.92;;
14584;SDS011;7379;51.506;11.876;2022-09-02T03:36:25;2.08;;;1.80;;
14584;SDS011;7379;51.506;11.876;2022-09-02T03:38:54;2.35;;;1.90;;
14584;SDS011;7379;51.506;11.876;2022-09-02T03:41:22;2.90;;;2.00;;
14584;SDS011;7379;51.506;11.876;2022-09-02T03:43:49;3.05;;;1.73;;
14584;SDS011;7379;51.506;11.876;2022-09-02T03:46:16;2.78;;;1.80;;
14584;SDS011;7379;51.506;11.876;2022-09-02T03:48:44;2.10;;;1.85;;
14584;SDS011;7379;51.506;11.876;2022-09-02T03:51:11;1.98;;;1.77;;
14584;SDS011;7379;51.506;11.876;2022-09-02T03:53:39;3.55;;;1.90;;
14584;SDS011;7379;51.506;11.876;2022-09-02T03:56:06;1.90;;;1.80;;
14584;SDS011;7379;51.506;11.876;2022-09-02T03:58:37;2.10;;;1.70;;
14584;SDS011;7379;51.506;11.876;2022-09-02T04:01:05;2.30;;;1.90;;
14584;SDS011;7379;51.506;11.876;2022-09-02T04:03:32;2.67;;;1.98;;
14584;SDS011;7379;51.506;11.876;2022-09-02T04:05:59;2.13;;;1.73;;
14584;SDS011;7379;51.506;11.876;2022-09-02T04:08:26;3.75;;;1.65;;
14584;SDS011;7379;51.506;11.876;2022-09-02T04:10:53;1.80;;;1.70;;
14584;SDS011;7379;51.506;11.876;2022-09-02T04:13:20;2.30;;;2.10;;
14584;SDS011;7379;51.506;11.876;2022-09-02T04:15:48;2.70;;;1.85;;
14584;SDS011;7379;51.506;11.876;2022-09-02T04:18:16;2.55;;;2.15;;
14584;SDS011;7379;51.506;11.876;2022-09-02T04:20:43;2.10;;;1.90;;
14584;SDS011;7379;51.506;11.876;2022-09-02T04:23:10;2.45;;;1.90;;
14584;SDS011;7379;51.506;11.876;2022-09-02T04:25:37;2.42;;;2.00;;
14584;SDS011;7379;51.506;11.876;2022-09-02T04:28:06;3.00;;;2.00;;
14584;SDS011;7379;51.506;11.876;2022-09-02T04:30:33;2.10;;;1.90;;
14584;SDS011;7379;51.506;11.876;2022-09-02T04:33:04;2.85;;;2.00;;
14584;SDS011;7379;51.506;11.876;2022-09-02T04:35:31;2.17;;;1.80;;
14584;SDS011;7379;51.506;11.876;2022-09-02T04:37:59;1.98;;;1.80;;
14584;SDS011;7379;51.506;11.876;2022-09-02T04:40:27;2.85;;;2.00;;
14584;SDS011;7379;51.506;11.876;2022-09-02T04:42:53;2.20;;;1.77;;
14584;SDS011;7379;51.506;11.876;2022-09-02T04:45:20;2.25;;;1.92;;
14584;SDS011;7379;51.506;11.876;2022-09-02T04:47:47;3.00;;;2.00;;
14584;SDS011;7379;51.506;11.876;2022-09-02T04:50:15;2.63;;;2.03;;
14584;SDS011;7379;51.506;11.876;2022-09-02T04:52:42;2.28;;;1.85;;
14584;SDS011;7379;51.506;11.876;2022-09-02T04:55:09;2.13;;;1.90;;
14584;SDS011;7379;51.506;11.876;2022-09-02T04:57:36;2.65;;;1.92;;
14584;SDS011;7379;51.506;11.876;2022-09-02T05:00:04;2.17;;;1.98;;
14584;SDS011;7379;51.506;11.876;2022-09-02T05:02:31;3.35;;;2.13;;
14584;SDS011;7379;51.506;11.876;2022-09-02T05:04:58;2.00;;;1.80;;
14584;SDS011;7379;51.506;11.876;2022-09-02T05:07:26;2.50;;;2.00;;
14584;SDS011;7379;51.506;11.876;2022-09-02T05:09:55;1.90;;;1.70;;
14584;SDS011;7379;51.506;11.876;2022-09-02T05:12:22;2.70;;;2.00;;
14584;SDS011;7379;51.506;11.876;2022-09-02T05:14:52;2.33;;;1.90;;
14584;SDS011;7379;51.506;11.876;2022-09-02T05:17:19;3.20;;;2.00;;
14584;SDS011;7379;51.506;11.876;2022-09-02T05:19:46;2.20;;;2.00;;
14584;SDS011;7379;51.506;11.876;2022-09-02T05:22:13;2.30;;;1.92;;
14584;SDS011;7379;51.506;11.876;2022-09-02T05:24:42;2.08;;;1.83;;
14584;SDS011;7379;51.506;11.876;2022-09-02T05:27:09;2.42;;;1.88;;
14584;SDS011;7379;51.506;11.876;2022-09-02T05:29:36;4.20;;;2.15;;
14584;SDS011;7379;51.506;11.876;2022-09-02T05:32:03;2.42;;;2.00;;
14584;SDS011;7379;51.506;11.876;2022-09-02T05:34:32;3.10;;;2.08;;
14584;SDS011;7379;51.506;11.876;2022-09-02T05:36:59;2.45;;;2.20;;
14584;SDS011;7379;51.506;11.876;2022-09-02T05:39:27;3.20;;;2.22;;
14584;SDS011;7379;51.506;11.876;2022-09-02T05:41:56;4.40;;;2.00;;
14584;SDS011;7379;51.506;11.876;2022-09-02T05:44:23;2.40;;;2.00;;
14584;SDS011;7379;51.506;11.876;2022-09-02T05:46:51;2.80;;;2.05;;
14584;SDS011;7379;51.506;11.876;2022-09-02T05:49:17;2.67;;;2.40;;
14584;SDS011;7379;51.506;11.876;2022-09-02T05:51:46;3.38;;;2.30;;
14584;SDS011;7379;51.506;11.876;2022-09-02T05:54:15;2.22;;;2.00;;
14584;SDS011;7379;51.506;11.876;2022-09-02T05:56:47;2.60;;;1.95;;
14584;SDS011;7379;51.506;11.876;2022-09-02T05:59:17;2.58;;;2.22;;
14584;SDS011;7379;51.506;11.876;2022-09-02T06:01:45;2.70;;;2.10;;
14584;SDS011;7379;51.506;11.876;2022-09-02T06:04:12;2.28;;;2.03;;
14584;SDS011;7379;51.506;11.876;2022-09-02T06:06:39;2.95;;;2.15;;
14584;SDS011;7379;51.506;11.876;2022-09-02T06:09:07;2.35;;;1.80;;
14584;SDS011;7379;51.506;11.876;2022-09-02T06:11:35;2.63;;;2.05;;
14584;SDS011;7379;51.506;11.876;2022-09-02T06:14:04;2.38;;;2.17;;
14584;SDS011;7379;51.506;11.876;2022-09-02T06:16:33;2.60;;;2.00;;
14584;SDS011;7379;51.506;11.876;2022-09-02T06:19:01;4.10;;;2.20;;
14584;SDS011;7379;51.506;11.876;2022-09-02T06:21:28;2.45;;;2.20;;
14584;SDS011;7379;51.506;11.876;2022-09-02T06:23:55;3.38;;;2.10;;
14584;SDS011;7379;51.506;11.876;2022-09-02T06:26:22;2.70;;;2.22;;
14584;SDS011;7379;51.506;11.876;2022-09-02T06:28:49;2.65;;;1.90;;
14584;SDS011;7379;51.506;11.876;2022-09-02T06:31:17;2.92;;;2.20;;
14584;SDS011;7379;51.506;11.876;2022-09-02T06:33:50;5.57;;;2.50;;
14584;SDS011;7379;51.506;11.876;2022-09-02T06:36:18;4.00;;;2.20;;
14584;SDS011;7379;51.506;11.876;2022-09-02T06:38:46;3.28;;;2.30;;
14584;SDS011;7379;51.506;11.876;2022-09-02T06:41:18;3.92;;;2.25;;
14584;SDS011;7379;51.506;11.876;2022-09-02T06:43:47;4.97;;;2.38;;
14584;SDS011;7379;51.506;11.876;2022-09-02T06:46:14;4.60;;;2.17;;
14584;SDS011;7379;51.506;11.876;2022-09-02T06:48:43;3.85;;;2.20;;
14584;SDS011;7379;51.506;11.876;2022-09-02T06:51:15;3.28;;;2.10;;
14584;SDS011;7379;51.506;11.876;2022-09-02T06:53:43;3.05;;;2.20;;
14584;SDS011;7379;51.506;11.876;2022-09-02T06:56:10;3.40;;;2.38;;
14584;SDS011;7379;51.506;11.876;2022-09-02T06:58:36;2.92;;;2.20;;
14584;SDS011;7379;51.506;11.876;2022-09-02T07:01:03;2.97;;;2.28;;
14584;SDS011;7379;51.506;11.876;2022-09-02T07:03:31;2.30;;;2.10;;
14584;SDS011;7379;51.506;11.876;2022-09-02T07:06:16;3.72;;;2.50;;
14584;SDS011;7379;51.506;11.876;2022-09-02T07:08:43;3.17;;;2.35;;
14584;SDS011;7379;51.506;11.876;2022-09-02T07:11:14;3.58;;;2.40;;
14584;SDS011;7379;51.506;11.876;2022-09-02T07:13:42;3.08;;;2.20;;
14584;SDS011;7379;51.506;11.876;2022-09-02T07:16:09;2.95;;;2.40;;
14584;SDS011;7379;51.506;11.876;2022-09-02T07:18:36;2.92;;;2.55;;
14584;SDS011;7379;51.506;11.876;2022-09-02T07:21:03;3.33;;;2.20;;
14584;SDS011;7379;51.506;11.876;2022-09-02T07:23:31;4.03;;;2.38;;
14584;SDS011;7379;51.506;11.876;2022-09-02T07:25:58;2.90;;;2.30;;
14584;SDS011;7379;51.506;11.876;2022-09-02T07:28:25;3.53;;;2.35;;
14584;SDS011;7379;51.506;11.876;2022-09-02T07:30:52;3.58;;;2.50;;
14584;SDS011;7379;51.506;11.876;2022-09-02T07:33:20;2.40;;;2.20;;
14584;SDS011;7379;51.506;11.876;2022-09-02T07:35:48;3.67;;;2.50;;
14584;SDS011;7379;51.506;11.876;2022-09-02T07:38:17;5.57;;;2.55;;
14584;SDS011;7379;51.506;11.876;2022-09-02T07:40:45;3.03;;;2.47;;
14584;SDS011;7379;51.506;11.876;2022-09-02T07:43:12;4.60;;;2.60;;
14584;SDS011;7379;51.506;11.876;2022-09-02T07:45:39;2.95;;;2.50;;
14584;SDS011;7379;51.506;11.876;2022-09-02T07:48:08;2.85;;;2.50;;
14584;SDS011;7379;51.506;11.876;2022-09-02T07:50:35;2.30;;;2.10;;
14584;SDS011;7379;51.506;11.876;2022-09-02T07:53:02;3.85;;;2.20;;
14584;SDS011;7379;51.506;11.876;2022-09-02T07:55:31;6.60;;;2.70;;
14584;SDS011;7379;51.506;11.876;2022-09-02T07:58:02;6.00;;;2.75;;
14584;SDS011;7379;51.506;11.876;2022-09-02T08:00:29;4.43;;;2.40;;
14584;SDS011;7379;51.506;11.876;2022-09-02T08:02:56;2.63;;;2.10;;
14584;SDS011;7379;51.506;11.876;2022-09-02T08:05:23;4.03;;;2.50;;
14584;SDS011;7379;51.506;11.876;2022-09-02T08:07:50;2.95;;;2.15;;
14584;SDS011;7379;51.506;11.876;2022-09-02T08:10:17;4.25;;;2.50;;
14584;SDS011;7379;51.506;11.876;2022-09-02T08:12:45;3.55;;;2.60;;
14584;SDS011;7379;51.506;11.876;2022-09-02T08:15:14;2.80;;;2.10;;
14584;SDS011;7379;51.506;11.876;2022-09-02T08:17:41;3.45;;;2.33;;
14584;SDS011;7379;51.506;11.876;2022-09-02T08:20:08;3.90;;;2.50;;
14584;SDS011;7379;51.506;11.876;2022-09-02T08:22:37;2.95;;;2.20;;
14584;SDS011;7379;51.506;11.876;2022-09-02T08:25:04;2.85;;;2.20;;
14584;SDS011;7379;51.506;11.876;2022-09-02T08:27:31;3.92;;;2.50;;
14584;SDS011;7379;51.506;11.876;2022-09-02T08:29:58;4.68;;;2.28;;
14584;SDS011;7379;51.506;11.876;2022-09-02T08:32:27;3.90;;;2.20;;
14584;SDS011;7379;51.506;11.876;2022-09-02T08:34:54;3.33;;;2.35;;
14584;SDS011;7379;51.506;11.876;2022-09-02T08:37:22;2.42;;;2.13;;
14584;SDS011;7379;51.506;11.876;2022-09-02T08:39:49;4.95;;;2.38;;
14584;SDS011;7379;51.506;11.876;2022-09-02T08:42:17;4.88;;;2.33;;
14584;SDS011;7379;51.506;11.876;2022-09-02T08:44:47;2.95;;;2.10;;
14584;SDS011;7379;51.506;11.876;2022-09-02T08:47:20;3.85;;;1.95;;
14584;SDS011;7379;51.506;11.876;2022-09-02T08:49:52;3.28;;;2.05;;
14584;SDS011;7379;51.506;11.876;2022-09-02T08:52:27;2.58;;;1.90;;
14584;SDS011;7379;51.506;11.876;2022-09-02T08:54:58;5.70;;;2.30;;
14584;SDS011;7379;51.506;11.876;2022-09-02T08:57:26;3.92;;;1.98;;
14584;SDS011;7379;51.506;11.876;2022-09-02T08:59:55;5.32;;;2.22;;
14584;SDS011;7379;51.506;11.876;2022-09-02T09:02:26;2.67;;;1.70;;
14584;SDS011;7379;51.506;11.876;2022-09-02T09:05:05;1.77;;;1.65;;
14584;SDS011;7379;51.506;11.876;2022-09-02T09:07:44;5.10;;;2.00;;
14584;SDS011;7379;51.506;11.876;2022-09-02T09:10:19;3.25;;;1.80;;
14584;SDS011;7379;51.506;11.876;2022-09-02T09:12:56;3.03;;;1.83;;
14584;SDS011;7379;51.506;11.876;2022-09-02T09:15:38;3.35;;;1.90;;
14584;SDS011;7379;51.506;11.876;2022-09-02T09:18:10;7.25;;;2.00;;
14584;SDS011;7379;51.506;11.876;2022-09-02T09:20:42;2.65;;;1.73;;
14584;SDS011;7379;51.506;11.876;2022-09-02T09:23:15;5.68;;;1.90;;
14584;SDS011;7379;51.506;11.876;2022-09-02T09:25:47;2.15;;;1.67;;
14584;SDS011;7379;51.506;11.876;2022-09-02T09:28:17;2.83;;;1.63;;
14584;SDS011;7379;51.506;11.876;2022-09-02T09:30:44;2.03;;;1.60;;
14584;SDS011;7379;51.506;11.876;2022-09-02T09:33:12;1.55;;;1.42;;
14584;SDS011;7379;51.506;11.876;2022-09-02T09:35:49;3.15;;;1.60;;
14584;SDS011;7379;51.506;11.876;2022-09-02T09:38:27;2.25;;;1.77;;
14584;SDS011;7379;51.506;11.876;2022-09-02T09:43:39;2.88;;;1.63;;
14584;SDS011;7379;51.506;11.876;2022-09-02T09:48:56;3.65;;;1.70;;
14584;SDS011;7379;51.506;11.876;2022-09-02T09:51:25;3.30;;;1.50;;
14584;SDS011;7379;51.506;11.876;2022-09-02T09:53:51;1.67;;;1.42;;
14584;SDS011;7379;51.506;11.876;2022-09-02T09:56:39;2.00;;;1.40;;
14584;SDS011;7379;51.506;11.876;2022-09-02T09:59:06;1.98;;;1.48;;
14584;SDS011;7379;51.506;11.876;2022-09-02T10:02:04;2.17;;;1.65;;
14584;SDS011;7379;51.506;11.876;2022-09-02T10:04:31;1.60;;;1.50;;
14584;SDS011;7379;51.506;11.876;2022-09-02T10:07:00;4.20;;;1.55;;
14584;SDS011;7379;51.506;11.876;2022-09-02T10:09:31;4.22;;;1.70;;
14584;SDS011;7379;51.506;11.876;2022-09-02T10:12:00;2.15;;;1.48;;
14584;SDS011;7379;51.506;11.876;2022-09-02T10:14:31;2.05;;;1.50;;
14584;SDS011;7379;51.506;11.876;2022-09-02T10:17:04;1.80;;;1.40;;
14584;SDS011;7379;51.506;11.876;2022-09-02T10:19:46;2.92;;;1.50;;
14584;SDS011;7379;51.506;11.876;2022-09-02T10:22:30;1.73;;;1.30;;
14584;SDS011;7379;51.506;11.876;2022-09-02T10:25:20;1.52;;;1.42;;
14584;SDS011;7379;51.506;11.876;2022-09-02T10:27:57;2.20;;;1.50;;
14584;SDS011;7379;51.506;11.876;2022-09-02T10:30:32;4.45;;;1.60;;
14584;SDS011;7379;51.506;11.876;2022-09-02T10:33:18;2.15;;;1.70;;
14584;SDS011;7379;51.506;11.876;2022-09-02T10:35:53;3.50;;;1.50;;
14584;SDS011;7379;51.506;11.876;2022-09-02T10:38:31;1.67;;;1.55;;
14584;SDS011;7379;51.506;11.876;2022-09-02T10:41:08;2.03;;;1.50;;
14584;SDS011;7379;51.506;11.876;2022-09-02T10:43:48;1.58;;;1.40;;
14584;SDS011;7379;51.506;11.876;2022-09-02T10:46:25;1.80;;;1.52;;
14584;SDS011;7379;51.506;11.876;2022-09-02T10:48:59;2.00;;;1.50;;
14584;SDS011;7379;51.506;11.876;2022-09-02T10:51:33;1.85;;;1.50;;
14584;SDS011;7379;51.506;11.876;2022-09-02T10:54:16;2.85;;;1.25;;
14584;SDS011;7379;51.506;11.876;2022-09-02T10:56:52;2.40;;;1.48;;
14584;SDS011;7379;51.506;11.876;2022-09-02T10:59:26;2.00;;;1.27;;
14584;SDS011;7379;51.506;11.876;2022-09-02T11:01:59;3.72;;;1.40;;
14584;SDS011;7379;51.506;11.876;2022-09-02T11:04:38;2.53;;;1.50;;
14584;SDS011;7379;51.506;11.876;2022-09-02T11:07:11;1.45;;;1.20;;
14584;SDS011;7379;51.506;11.876;2022-09-02T11:09:44;1.33;;;1.20;;
14584;SDS011;7379;51.506;11.876;2022-09-02T11:12:17;1.50;;;1.40;;
14584;SDS011;7379;51.506;11.876;2022-09-02T11:14:52;1.50;;;1.40;;
14584;SDS011;7379;51.506;11.876;2022-09-02T11:17:26;1.95;;;1.50;;
14584;SDS011;7379;51.506;11.876;2022-09-02T11:19:57;1.70;;;1.48;;
14584;SDS011;7379;51.506;11.876;2022-09-02T11:22:27;1.35;;;1.25;;
14584;SDS011;7379;51.506;11.876;2022-09-02T11:25:06;1.58;;;1.38;;
14584;SDS011;7379;51.506;11.876;2022-09-02T11:27:38;1.50;;;1.40;;
14584;SDS011;7379;51.506;11.876;2022-09-02T11:30:11;2.30;;;1.63;;
14584;SDS011;7379;51.506;11.876;2022-09-02T11:32:41;1.63;;;1.38;;
14584;SDS011;7379;51.506;11.876;2022-09-02T11:35:11;2.65;;;1.50;;
14584;SDS011;7379;51.506;11.876;2022-09-02T11:37:44;3.35;;;1.70;;
14584;SDS011;7379;51.506;11.876;2022-09-02T11:40:17;3.22;;;1.50;;
14584;SDS011;7379;51.506;11.876;2022-09-02T11:43:06;1.73;;;1.52;;
14584;SDS011;7379;51.506;11.876;2022-09-02T11:45:51;1.92;;;1.50;;
14584;SDS011;7379;51.506;11.876;2022-09-02T11:48:51;3.63;;;1.45;;
14584;SDS011;7379;51.506;11.876;2022-09-02T11:54:38;1.50;;;1.20;;
14584;SDS011;7379;51.506;11.876;2022-09-02T11:57:10;2.22;;;1.50;;
14584;SDS011;7379;51.506;11.876;2022-09-02T12:02:35;1.77;;;1.27;;
14584;SDS011;7379;51.506;11.876;2022-09-02T12:11:32;1.90;;;1.45;;
14584;SDS011;7379;51.506;11.876;2022-09-02T12:14:08;2.60;;;1.60;;
14584;SDS011;7379;51.506;11.876;2022-09-02T12:16:43;2.75;;;1.33;;
14584;SDS011;7379;51.506;11.876;2022-09-02T12:19:28;1.60;;;1.23;;
14584;SDS011;7379;51.506;11.876;2022-09-02T12:22:26;2.50;;;1.10;;
14584;SDS011;7379;51.506;11.876;2022-09-02T12:25:02;1.77;;;1.20;;
14584;SDS011;7379;51.506;11.876;2022-09-02T12:27:31;1.20;;;1.10;;
14584;SDS011;7379;51.506;11.876;2022-09-02T12:30:02;2.83;;;1.10;;
14584;SDS011;7379;51.506;11.876;2022-09-02T12:35:33;1.10;;;1.00;;
14584;SDS011;7379;51.506;11.876;2022-09-02T12:38:32;3.10;;;1.25;;
14584;SDS011;7379;51.506;11.876;2022-09-02T12:41:05;1.48;;;1.08;;
14584;SDS011;7379;51.506;11.876;2022-09-02T12:43:52;1.20;;;1.10;;
14584;SDS011;7379;51.506;11.876;2022-09-02T12:46:38;1.20;;;1.10;;
14584;SDS011;7379;51.506;11.876;2022-09-02T12:49:20;2.83;;;1.33;;
14584;SDS011;7379;51.506;11.876;2022-09-02T12:51:54;2.33;;;1.50;;
14584;SDS011;7379;51.506;11.876;2022-09-02T12:54:26;1.80;;;1.25;;
14584;SDS011;7379;51.506;11.876;2022-09-02T12:57:00;1.48;;;1.20;;
14584;SDS011;7379;51.506;11.876;2022-09-02T12:59:28;1.50;;;1.10;;
14584;SDS011;7379;51.506;11.876;2022-09-02T13:02:03;3.22;;;1.40;;
14584;SDS011;7379;51.506;11.876;2022-09-02T13:04:43;1.58;;;1.00;;
14584;SDS011;7379;51.506;11.876;2022-09-02T13:07:33;1.85;;;1.30;;
14584;SDS011;7379;51.506;11.876;2022-09-02T13:10:31;1.15;;;1.05;;
14584;SDS011;7379;51.506;11.876;2022-09-02T13:13:27;1.02;;;0.93;;
14584;SDS011;7379;51.506;11.876;2022-09-02T13:16:15;2.25;;;1.30;;
14584;SDS011;7379;51.506;11.876;2022-09-02T13:19:03;1.02;;;1.00;;
14584;SDS011;7379;51.506;11.876;2022-09-02T13:25:07;2.53;;;1.25;;
14584;SDS011;7379;51.506;11.876;2022-09-02T13:31:05;2.13;;;0.95;;
14584;SDS011;7379;51.506;11.876;2022-09-02T13:33:38;1.40;;;1.05;;
14584;SDS011;7379;51.506;11.876;2022-09-02T13:36:08;2.90;;;0.95;;
14584;SDS011;7379;51.506;11.876;2022-09-02T13:38:35;1.52;;;1.08;;
14584;SDS011;7379;51.506;11.876;2022-09-02T13:41:02;1.23;;;1.13;;
14584;SDS011;7379;51.506;11.876;2022-09-02T13:43:29;1.52;;;1.00;;
14584;SDS011;7379;51.506;11.876;2022-09-02T13:45:58;1.33;;;0.93;;
14584;SDS011;7379;51.506;11.876;2022-09-02T13:48:27;1.00;;;1.00;;
14584;SDS011;7379;51.506;11.876;2022-09-02T13:50:56;2.63;;;1.00;;
14584;SDS011;7379;51.506;11.876;2022-09-02T13:53:31;1.48;;;0.82;;
14584;SDS011;7379;51.506;11.876;2022-09-02T13:56:00;1.00;;;0.90;;
14584;SDS011;7379;51.506;11.876;2022-09-02T13:58:33;1.00;;;1.00;;
14584;SDS011;7379;51.506;11.876;2022-09-02T14:01:22;1.27;;;1.05;;
14584;SDS011;7379;51.506;11.876;2022-09-02T14:03:52;1.63;;;1.00;;
14584;SDS011;7379;51.506;11.876;2022-09-02T14:06:22;2.80;;;1.02;;
14584;SDS011;7379;51.506;11.876;2022-09-02T14:08:54;1.35;;;1.08;;
14584;SDS011;7379;51.506;11.876;2022-09-02T14:11:22;1.80;;;1.00;;
14584;SDS011;7379;51.506;11.876;2022-09-02T14:13:50;1.17;;;0.98;;
14584;SDS011;7379;51.506;11.876;2022-09-02T14:16:28;1.17;;;1.08;;
14584;SDS011;7379;51.506;11.876;2022-09-02T14:19:07;2.00;;;1.00;;
14584;SDS011;7379;51.506;11.876;2022-09-02T14:21:43;1.25;;;0.88;;
14584;SDS011;7379;51.506;11.876;2022-09-02T14:24:14;1.10;;;0.90;;
14584;SDS011;7379;51.506;11.876;2022-09-02T14:26:46;1.92;;;1.30;;
14584;SDS011;7379;51.506;11.876;2022-09-02T14:29:24;1.50;;;0.82;;
14584;SDS011;7379;51.506;11.876;2022-09-02T14:32:05;1.00;;;0.90;;
14584;SDS011;7379;51.506;11.876;2022-09-02T14:34:37;2.17;;;1.10;;
14584;SDS011;7379;51.506;11.876;2022-09-02T14:40:01;1.77;;;1.10;;
14584;SDS011;7379;51.506;11.876;2022-09-02T14:42:32;1.10;;;0.98;;
14584;SDS011;7379;51.506;11.876;2022-09-02T14:45:08;1.67;;;1.10;;
14584;SDS011;7379;51.506;11.876;2022-09-02T14:47:37;1.00;;;0.90;;
14584;SDS011;7379;51.506;11.876;2022-09-02T14:50:08;2.03;;;1.00;;
14584;SDS011;7379;51.506;11.876;2022-09-02T14:52:43;1.77;;;1.10;;
14584;SDS011;7379;51.506;11.876;2022-09-02T14:55:43;1.02;;;0.93;;
14584;SDS011;7379;51.506;11.876;2022-09-02T14:58:08;1.75;;;1.10;;
14584;SDS011;7379;51.506;11.876;2022-09-02T15:00:35;2.38;;;1.25;;
14584;SDS011;7379;51.506;11.876;2022-09-02T15:03:03;1.17;;;1.08;;
14584;SDS011;7379;51.506;11.876;2022-09-02T15:05:32;1.70;;;1.23;;
14584;SDS011;7379;51.506;11.876;2022-09-02T15:07:58;4.25;;;1.33;;
14584;SDS011;7379;51.506;11.876;2022-09-02T15:10:26;2.60;;;1.00;;
14584;SDS011;7379;51.506;11.876;2022-09-02T15:12:54;1.17;;;1.08;;
14584;SDS011;7379;51.506;11.876;2022-09-02T15:15:22;1.05;;;0.95;;
14584;SDS011;7379;51.506;11.876;2022-09-02T15:17:51;1.30;;;1.17;;
14584;SDS011;7379;51.506;11.876;2022-09-02T15:20:18;1.48;;;0.90;;
14584;SDS011;7379;51.506;11.876;2022-09-02T15:22:45;1.45;;;1.02;;
14584;SDS011;7379;51.506;11.876;2022-09-02T15:25:12;3.13;;;1.33;;
14584;SDS011;7379;51.506;11.876;2022-09-02T15:27:41;1.52;;;1.10;;
14584;SDS011;7379;51.506;11.876;2022-09-02T15:30:08;1.27;;;1.17;;
14584;SDS011;7379;51.506;11.876;2022-09-02T15:32:35;1.13;;;1.00;;
14584;SDS011;7379;51.506;11.876;2022-09-02T15:35:03;1.30;;;1.20;;
14584;SDS011;7379;51.506;11.876;2022-09-02T15:37:30;1.33;;;0.95;;
14584;SDS011;7379;51.506;11.876;2022-09-02T15:40:01;1.40;;;1.00;;